createdAt,value
2019-01-13T00:01:46.008Z,89.10
2019-01-13T00:04:14.867Z,89.17
2019-01-13T00:06:43.816Z,86.13
2019-01-13T00:09:13.555Z,83.77
2019-01-13T00:11:42.616Z,84.90
2019-01-13T00:14:11.485Z,85.27
2019-01-13T00:16:40.618Z,84.33
2019-01-13T00:19:09.659Z,84.03
2019-01-13T00:21:38.512Z,83.10
2019-01-13T00:24:07.537Z,83.30
2019-01-13T00:26:36.589Z,83.30
2019-01-13T00:29:05.744Z,84.73
2019-01-13T00:31:34.709Z,83.23
2019-01-13T00:34:03.752Z,84.23
2019-01-13T00:36:32.615Z,84.57
2019-01-13T00:39:01.480Z,82.63
2019-01-13T00:41:30.391Z,83.30
2019-01-13T00:43:59.229Z,83.87
2019-01-13T00:46:28.251Z,84.10
2019-01-13T00:48:57.142Z,84.63
2019-01-13T00:51:26.006Z,83.57
2019-01-13T00:53:54.941Z,84.67
2019-01-13T00:56:23.911Z,86.17
2019-01-13T00:58:52.917Z,84.33
2019-01-13T01:01:21.884Z,84.73
2019-01-13T01:03:50.933Z,83.70
2019-01-13T01:06:19.782Z,84.03
2019-01-13T01:08:48.715Z,83.57
2019-01-13T01:11:19.330Z,85.50
2019-01-13T01:13:48.250Z,85.40
2019-01-13T01:16:17.323Z,84.33
2019-01-13T01:18:46.145Z,84.20
2019-01-13T01:21:15.206Z,83.53
2019-01-13T01:23:44.084Z,83.93
2019-01-13T01:26:12.898Z,84.60
2019-01-13T01:28:41.849Z,83.73
2019-01-13T01:31:10.927Z,84.37
2019-01-13T01:33:39.868Z,82.83
2019-01-13T01:36:08.674Z,82.60
2019-01-13T01:38:37.579Z,83.33
2019-01-13T01:41:06.459Z,82.67
2019-01-13T01:43:35.367Z,81.77
2019-01-13T01:46:04.384Z,83.33
2019-01-13T01:48:33.363Z,82.37
2019-01-13T01:51:02.357Z,81.40
2019-01-13T01:53:31.231Z,82.73
2019-01-13T01:56:00.128Z,82.67
2019-01-13T01:58:29.123Z,82.80
2019-01-13T02:00:58.277Z,83.43
2019-01-13T02:03:27.169Z,82.30
2019-01-13T02:05:56.183Z,82.77
2019-01-13T02:08:25.068Z,81.97
2019-01-13T02:10:53.899Z,82.60
2019-01-13T02:13:23.034Z,82.53
2019-01-13T02:15:52.038Z,82.23
2019-01-13T02:18:21.199Z,82.47
2019-01-13T02:20:50.117Z,83.23
2019-01-13T02:23:18.967Z,83.20
2019-01-13T02:25:47.864Z,83.70
2019-01-13T02:28:16.762Z,84.47
2019-01-13T02:30:49.259Z,85.20
2019-01-13T02:33:16.383Z,83.40
2019-01-13T02:35:45.273Z,83.80
2019-01-13T02:38:14.241Z,83.60
2019-01-13T02:40:43.184Z,82.87
2019-01-13T02:43:12.088Z,83.17
2019-01-13T02:45:41.010Z,85.17
2019-01-13T02:48:09.887Z,85.10
2019-01-13T02:50:38.706Z,84.87
2019-01-13T02:53:07.608Z,85.27
2019-01-13T02:55:36.528Z,85.80
2019-01-13T02:58:05.385Z,85.27
2019-01-13T03:00:34.327Z,85.97
2019-01-13T03:03:03.358Z,86.40
2019-01-13T03:05:32.231Z,85.20
2019-01-13T03:08:01.102Z,87.87
2019-01-13T03:10:30.005Z,88.03
2019-01-13T03:12:58.957Z,86.43
2019-01-13T03:15:27.896Z,87.00
2019-01-13T03:17:56.761Z,86.67
2019-01-13T03:20:25.762Z,85.77
2019-01-13T03:22:54.634Z,87.60
2019-01-13T03:25:24.232Z,86.40
2019-01-13T03:27:53.198Z,86.17
2019-01-13T03:30:25.420Z,86.17
2019-01-13T03:32:55.096Z,86.10
2019-01-13T03:35:23.960Z,85.53
2019-01-13T03:37:52.948Z,86.20
2019-01-13T03:40:24.110Z,84.53
2019-01-13T03:42:53.130Z,86.10
2019-01-13T03:45:22.086Z,85.13
2019-01-13T03:47:50.879Z,86.30
2019-01-13T03:50:21.657Z,85.57
2019-01-13T03:52:53.116Z,85.87
2019-01-13T03:55:23.037Z,86.40
2019-01-13T03:57:51.989Z,88.90
2019-01-13T04:00:22.709Z,86.10
2019-01-13T04:02:51.588Z,84.27
2019-01-13T04:05:20.558Z,86.97
2019-01-13T04:07:49.363Z,85.40
2019-01-13T04:10:18.428Z,85.67
2019-01-13T04:12:47.401Z,84.80
2019-01-13T04:15:45.806Z,83.53
2019-01-13T04:18:14.746Z,84.13
2019-01-13T04:20:43.606Z,84.73
2019-01-13T04:23:12.593Z,85.57
2019-01-13T04:25:41.577Z,82.97
2019-01-13T04:28:10.376Z,83.93
2019-01-13T04:30:39.292Z,84.17
2019-01-13T04:33:09.174Z,82.07
2019-01-13T04:35:37.994Z,83.77
2019-01-13T04:38:06.846Z,83.90
2019-01-13T04:40:35.657Z,85.20
2019-01-13T04:43:04.673Z,84.87
2019-01-13T04:45:33.573Z,84.37
2019-01-13T04:48:02.546Z,86.27
2019-01-13T04:50:31.433Z,86.83
2019-01-13T04:53:00.395Z,86.43
2019-01-13T04:55:29.456Z,87.30
2019-01-13T04:57:58.383Z,86.63
2019-01-13T05:00:27.357Z,86.03
2019-01-13T05:02:56.456Z,86.60
2019-01-13T05:05:25.556Z,87.90
2019-01-13T05:07:54.565Z,83.60
2019-01-13T05:10:24.134Z,83.43
2019-01-13T05:12:53.090Z,83.37
2019-01-13T05:15:21.946Z,81.67
2019-01-13T05:17:50.790Z,81.00
2019-01-13T05:20:20.723Z,80.40
2019-01-13T05:22:49.659Z,82.50
2019-01-13T05:25:18.635Z,80.60
2019-01-13T05:27:47.449Z,80.57
2019-01-13T05:30:21.551Z,79.97
2019-01-13T05:32:50.575Z,79.47
2019-01-13T05:35:19.660Z,79.53
2019-01-13T05:37:48.607Z,80.73
2019-01-13T05:40:19.319Z,80.03
2019-01-13T05:42:48.251Z,78.90
2019-01-13T05:45:18.818Z,78.90
2019-01-13T05:47:47.803Z,79.20
2019-01-13T05:50:18.026Z,80.13
2019-01-13T05:52:48.398Z,79.27
2019-01-13T05:55:17.202Z,79.30
2019-01-13T05:57:46.094Z,79.27
2019-01-13T06:00:20.770Z,79.00
2019-01-13T06:02:49.689Z,79.63
2019-01-13T06:05:18.705Z,79.37
2019-01-13T06:07:47.707Z,78.70
2019-01-13T06:10:17.688Z,78.97
2019-01-13T06:12:46.698Z,79.73
2019-01-13T06:15:17.913Z,79.43
2019-01-13T06:17:46.901Z,79.60
2019-01-13T06:20:17.611Z,78.90
2019-01-13T06:22:46.507Z,78.37
2019-01-13T06:25:15.789Z,79.37
2019-01-13T06:27:44.725Z,78.20
2019-01-13T06:30:16.120Z,78.33
2019-01-13T06:32:44.995Z,78.67
2019-01-13T06:35:13.969Z,77.73
2019-01-13T06:37:42.995Z,78.90
2019-01-13T06:40:14.029Z,78.60
2019-01-13T06:42:43.033Z,79.27
2019-01-13T06:45:17.604Z,78.37
2019-01-13T06:47:46.605Z,77.67
2019-01-13T06:50:15.781Z,77.40
2019-01-13T06:52:44.894Z,78.10
2019-01-13T06:55:13.878Z,79.37
2019-01-13T06:57:42.775Z,79.17
2019-01-13T07:00:15.360Z,78.80
2019-01-13T07:02:44.267Z,78.53
2019-01-13T07:05:13.255Z,79.83
2019-01-13T07:07:42.251Z,80.10
2019-01-13T07:10:11.490Z,79.03
2019-01-13T07:12:40.418Z,80.70
2019-01-13T07:15:10.856Z,82.77
2019-01-13T07:17:39.786Z,88.20
2019-01-13T07:20:11.099Z,81.23
2019-01-13T07:22:40.068Z,105.63
2019-01-13T07:25:08.919Z,85.47
2019-01-13T07:27:37.945Z,91.47
2019-01-13T07:30:15.988Z,84.37
2019-01-13T07:32:44.837Z,81.70
2019-01-13T07:35:13.695Z,80.67
2019-01-13T07:37:42.632Z,80.33
2019-01-13T07:40:14.107Z,85.43
2019-01-13T07:42:43.017Z,80.73
2019-01-13T07:45:13.366Z,80.40
2019-01-13T07:47:42.306Z,81.03
2019-01-13T07:50:13.039Z,87.33
2019-01-13T07:52:41.959Z,81.07
2019-01-13T07:55:13.463Z,85.07
2019-01-13T07:57:42.676Z,88.40
2019-01-13T08:00:17.667Z,83.57
2019-01-13T08:03:05.954Z,139.77
2019-01-13T08:05:34.845Z,81.03
2019-01-13T08:08:03.769Z,86.40
2019-01-13T08:10:32.751Z,80.43
2019-01-13T08:13:01.721Z,82.27
2019-01-13T08:15:30.687Z,82.87
2019-01-13T08:17:59.699Z,85.87
2019-01-13T08:20:32.344Z,91.13
2019-01-13T08:23:01.654Z,83.37
2019-01-13T08:25:30.730Z,81.53
2019-01-13T08:27:59.538Z,80.20
2019-01-13T08:30:28.515Z,80.23
2019-01-13T08:32:57.356Z,93.63
2019-01-13T08:35:26.248Z,103.97
2019-01-13T08:37:55.233Z,92.60
2019-01-13T08:40:24.188Z,81.87
2019-01-13T08:42:53.126Z,87.43
2019-01-13T08:45:22.179Z,104.27
2019-01-13T08:47:51.134Z,84.27
2019-01-13T08:50:21.652Z,81.63
2019-01-13T08:52:50.597Z,81.93
2019-01-13T08:55:19.928Z,91.00
2019-01-13T08:57:48.916Z,82.90
2019-01-13T09:00:26.218Z,90.47
2019-01-13T09:02:55.308Z,87.67
2019-01-13T09:05:24.552Z,86.20
2019-01-13T09:07:53.648Z,89.27
2019-01-13T09:10:22.809Z,90.43
2019-01-13T09:12:56.575Z,79.90
2019-01-13T09:15:23.791Z,79.80
2019-01-13T09:17:52.732Z,82.07
2019-01-13T09:20:23.751Z,81.27
2019-01-13T09:22:52.646Z,79.53
2019-01-13T09:25:21.650Z,81.53
2019-01-13T09:27:50.706Z,80.50
2019-01-13T09:30:22.101Z,81.50
2019-01-13T09:32:51.032Z,79.87
2019-01-13T09:35:19.939Z,81.03
2019-01-13T09:37:48.811Z,80.63
2019-01-13T09:40:20.835Z,83.37
2019-01-13T09:42:49.835Z,85.57
2019-01-13T09:45:20.072Z,84.53
2019-01-13T09:47:49.104Z,89.73
2019-01-13T09:50:19.205Z,87.73
2019-01-13T09:52:48.018Z,91.70
2019-01-13T09:55:17.817Z,92.37
2019-01-13T09:57:46.750Z,103.77
2019-01-13T10:00:39.033Z,90.37
2019-01-13T10:03:09.067Z,93.60
2019-01-13T10:05:38.147Z,98.90
2019-01-13T10:08:07.596Z,92.27
2019-01-13T10:10:36.629Z,88.90
2019-01-13T10:13:05.572Z,90.43
2019-01-13T10:15:34.442Z,95.33
2019-01-13T10:18:03.583Z,110.10
2019-01-13T10:20:32.481Z,93.53
2019-01-13T10:23:01.479Z,86.67
2019-01-13T10:25:30.426Z,89.37
2019-01-13T10:27:59.282Z,89.97
2019-01-13T10:30:30.297Z,89.30
2019-01-13T10:32:59.291Z,91.37
2019-01-13T10:35:28.352Z,86.73
2019-01-13T10:37:57.317Z,91.13
2019-01-13T10:40:28.353Z,94.47
2019-01-13T10:42:57.335Z,94.03
2019-01-13T10:45:26.545Z,91.57
2019-01-13T10:47:55.538Z,91.67
2019-01-13T10:50:26.858Z,91.93
2019-01-13T10:52:57.694Z,93.43
2019-01-13T10:55:26.764Z,88.43
2019-01-13T21:18:14.929Z,83.17
2019-01-13T21:37:21.350Z,97.43
2019-01-13T21:39:50.307Z,104.93
2019-01-13T21:42:19.401Z,107.43
2019-01-13T21:44:48.273Z,99.10
2019-01-13T21:47:17.191Z,104.40
2019-01-13T21:49:46.166Z,112.10
2019-01-13T21:52:15.091Z,110.50
2019-01-13T21:54:44.023Z,104.70
2019-01-13T21:57:13.013Z,106.63
2019-01-13T21:59:41.880Z,105.93
2019-01-13T22:02:10.843Z,98.90
2019-01-13T22:04:39.724Z,95.17
2019-01-13T22:07:08.717Z,98.73
2019-01-13T22:09:37.530Z,94.20
2019-01-13T22:12:06.407Z,92.57
2019-01-13T22:14:35.297Z,96.50
2019-01-13T22:17:04.158Z,92.80
2019-01-13T22:19:33.072Z,91.07
2019-01-13T22:22:02.033Z,93.30
2019-01-13T22:24:30.908Z,94.60
2019-01-13T22:26:59.851Z,103.73
2019-01-13T22:29:28.634Z,100.57
2019-01-13T22:31:57.517Z,95.77
2019-01-13T22:34:26.363Z,89.07
2019-01-13T22:36:55.130Z,98.13
2019-01-13T22:39:24.100Z,87.43
2019-01-13T22:41:53.374Z,97.63
2019-01-13T22:44:22.299Z,88.23
2019-01-13T22:46:51.142Z,91.03
2019-01-13T22:49:20.167Z,90.60
2019-01-13T22:51:49.326Z,88.57
2019-01-13T22:54:18.438Z,89.20
2019-01-13T22:56:47.321Z,87.57
2019-01-13T22:59:16.304Z,88.30
2019-01-13T23:01:46.766Z,89.07
2019-01-13T23:04:17.006Z,98.83
2019-01-13T23:06:45.932Z,98.87
2019-01-13T23:09:14.793Z,99.67
2019-01-13T23:11:43.582Z,97.50
2019-01-13T23:14:12.473Z,96.80
2019-01-13T23:16:41.455Z,85.77
2019-01-13T23:19:10.423Z,84.93
2019-01-13T23:21:39.410Z,84.07
2019-01-13T23:24:08.273Z,86.93
2019-01-13T23:26:37.112Z,84.80
2019-01-13T23:29:05.969Z,83.53
2019-01-13T23:31:34.851Z,97.50
2019-01-13T23:34:03.746Z,101.27
2019-01-13T23:36:32.555Z,97.87
2019-01-13T23:39:01.507Z,95.63
2019-01-13T23:41:30.303Z,92.77
2019-01-13T23:43:59.297Z,98.97
2019-01-13T23:46:28.258Z,91.33
2019-01-13T23:48:58.317Z,90.10
2019-01-13T23:51:27.375Z,98.67
2019-01-13T23:53:56.249Z,100.83
2019-01-13T23:56:25.249Z,98.97
2019-01-13T23:58:54.244Z,103.63
